Time;durP1;ratioP1;P1;durP2;ratioP2;P2;SDS_P1;SDS_P2;PMS_P1;PMS_P2;Temp;Humidity;BMP_temperature;BMP_pressure;BME280_temperature;BME280_humidity;BME280_pressure;Samples;Min_cycle;Max_cycle;Signal;HPM_P1;HPM_P2
2024/02/17 00:00:31;;;;;;;35.47;22.70;;;11.10;1.00;;;;;;5009414;28;20557;-85
2024/02/17 00:02:56;;;;;;;29.57;20.90;;;11.00;1.00;;;;;;5005940;28;20217;-85
2024/02/17 00:05:22;;;;;;;32.70;21.80;;;11.00;1.00;;;;;;5023184;28;20710;-88
2024/02/17 00:07:47;;;;;;;31.27;22.10;;;10.90;1.00;;;;;;5020685;28;20737;-86
2024/02/17 00:10:13;;;;;;;34.40;20.77;;;10.90;1.00;;;;;;5027570;28;20702;-84
2024/02/17 00:12:38;;;;;;;35.67;22.43;;;10.80;1.00;;;;;;5002152;28;20186;-85
2024/02/17 00:15:05;;;;;;;34.13;20.70;;;10.80;1.00;;;;;;5009542;28;20281;-87
2024/02/17 00:17:31;;;;;;;33.80;21.23;;;10.70;1.00;;;;;;5030146;28;20613;-85
2024/02/17 00:19:56;;;;;;;33.20;19.83;;;10.70;1.00;;;;;;5024782;28;20492;-84
2024/02/17 00:22:22;;;;;;;33.00;21.53;;;10.70;1.00;;;;;;5019890;28;20267;-87
2024/02/17 00:24:47;;;;;;;31.27;18.97;;;10.80;1.00;;;;;;5024830;28;20224;-85
2024/02/17 00:27:13;;;;;;;33.57;20.40;;;10.80;1.00;;;;;;5033754;28;20186;-86
2024/02/17 00:29:39;;;;;;;27.73;18.57;;;10.90;1.00;;;;;;5026411;28;20236;-85
2024/02/17 00:32:04;;;;;;;26.03;17.07;;;10.90;1.00;;;;;;5016693;28;20183;-84
2024/02/17 00:34:30;;;;;;;28.13;17.97;;;11.00;1.00;;;;;;5021478;28;20554;-85
2024/02/17 00:36:56;;;;;;;34.13;18.70;;;11.00;1.00;;;;;;5022082;28;20672;-86
2024/02/17 00:39:21;;;;;;;34.53;18.40;;;11.00;1.00;;;;;;5018297;28;20461;-85
2024/02/17 00:41:47;;;;;;;35.03;18.13;;;11.10;1.00;;;;;;5002843;28;20197;-85
2024/02/17 00:44:12;;;;;;;28.87;17.20;;;11.10;1.00;;;;;;5019273;28;20890;-85
2024/02/17 00:46:38;;;;;;;27.73;16.50;;;11.10;1.00;;;;;;5029320;28;20182;-85
2024/02/17 00:49:03;;;;;;;31.07;17.00;;;11.10;1.00;;;;;;5018935;28;20294;-87
2024/02/17 00:51:29;;;;;;;28.33;16.73;;;11.10;1.00;;;;;;5014934;28;20189;-86
2024/02/17 00:53:55;;;;;;;30.93;17.00;;;11.10;1.00;;;;;;5017401;28;20213;-85
2024/02/17 00:56:23;;;;;;;23.73;15.27;;;11.10;1.00;;;;;;5016356;28;20215;-86
2024/02/17 00:58:50;;;;;;;25.43;17.37;;;11.10;1.00;;;;;;5014316;28;20263;-86
2024/02/17 01:01:15;;;;;;;23.83;15.97;;;11.10;1.00;;;;;;5021762;28;20955;-86
2024/02/17 01:03:41;;;;;;;29.40;15.90;;;11.10;1.00;;;;;;5023892;28;20469;-85
2024/02/17 01:06:09;;;;;;;23.27;15.43;;;11.10;1.00;;;;;;5013878;28;20437;-86
2024/02/17 01:08:35;;;;;;;28.43;16.93;;;11.10;1.00;;;;;;5002062;28;20208;-86
2024/02/17 01:11:01;;;;;;;27.87;16.27;;;11.10;1.00;;;;;;5025249;28;20434;-87
2024/02/17 01:13:26;;;;;;;28.00;16.10;;;11.20;1.00;;;;;;4999044;28;20695;-86
2024/02/17 01:15:52;;;;;;;30.93;16.20;;;11.20;1.00;;;;;;5023514;28;20187;-86
2024/02/17 01:18:17;;;;;;;25.53;16.07;;;11.20;1.00;;;;;;5020503;28;20298;-86
2024/02/17 01:20:43;;;;;;;23.77;18.00;;;11.20;1.00;;;;;;5012134;28;20229;-85
2024/02/17 01:23:08;;;;;;;27.13;17.43;;;11.20;1.00;;;;;;5025984;28;20222;-85
2024/02/17 01:25:34;;;;;;;24.30;15.47;;;11.20;1.00;;;;;;5024083;28;20183;-84
2024/02/17 01:27:59;;;;;;;26.13;16.73;;;11.20;1.00;;;;;;4999812;28;20186;-86
2024/02/17 01:30:25;;;;;;;29.87;17.47;;;11.20;1.00;;;;;;5021785;28;20182;-86
2024/02/17 01:32:51;;;;;;;28.60;16.57;;;11.10;1.00;;;;;;5019046;28;20185;-86
2024/02/17 01:35:16;;;;;;;28.63;17.57;;;11.10;1.00;;;;;;5006944;28;20182;-86
2024/02/17 01:37:42;;;;;;;28.17;16.70;;;11.10;1.00;;;;;;5013336;28;20240;-85
2024/02/17 01:40:07;;;;;;;30.20;17.80;;;11.10;1.00;;;;;;5021428;28;20194;-85
2024/02/17 01:42:33;;;;;;;29.00;17.20;;;11.10;1.00;;;;;;5020007;28;20190;-86
2024/02/17 01:44:59;;;;;;;26.97;17.47;;;11.10;1.00;;;;;;5026364;28;20434;-84
2024/02/17 01:47:25;;;;;;;25.87;16.63;;;11.10;1.00;;;;;;5019057;28;20183;-85
2024/02/17 01:49:51;;;;;;;25.20;16.30;;;11.10;1.00;;;;;;5018434;28;20536;-86
2024/02/17 01:52:18;;;;;;;33.00;15.73;;;11.10;1.00;;;;;;5016479;28;21220;-86
2024/02/17 01:54:45;;;;;;;26.17;16.00;;;11.10;1.00;;;;;;5017771;28;20935;-85
2024/02/17 01:57:11;;;;;;;23.40;15.70;;;11.10;1.00;;;;;;5023756;28;20441;-85
2024/02/17 01:59:39;;;;;;;27.37;14.07;;;11.10;1.00;;;;;;5003212;28;20475;-85
2024/02/17 02:02:04;;;;;;;23.90;14.43;;;11.10;1.00;;;;;;5019165;28;20449;-85
2024/02/17 02:04:30;;;;;;;30.07;15.00;;;11.10;1.00;;;;;;5017766;28;20472;-85
2024/02/17 02:06:56;;;;;;;26.60;14.13;;;11.10;1.00;;;;;;5024501;28;20182;-84
2024/02/17 02:09:25;;;;;;;32.37;13.77;;;11.10;1.00;;;;;;5022415;28;20203;-84
2024/02/17 02:11:51;;;;;;;24.20;12.23;;;11.10;1.00;;;;;;5024902;28;20179;-85
2024/02/17 02:14:18;;;;;;;22.43;13.60;;;11.10;1.00;;;;;;5002976;28;20472;-86
2024/02/17 02:16:45;;;;;;;22.40;13.93;;;11.10;1.00;;;;;;5025594;28;20480;-87
2024/02/17 02:19:11;;;;;;;22.90;11.50;;;11.10;1.00;;;;;;5027944;28;20459;-86
2024/02/17 02:21:37;;;;;;;23.47;12.00;;;11.10;1.00;;;;;;5020753;28;20433;-85
2024/02/17 02:24:04;;;;;;;21.60;11.53;;;11.10;1.00;;;;;;5012143;28;20460;-84
2024/02/17 02:26:30;;;;;;;22.97;12.60;;;11.00;1.00;;;;;;4996843;28;20441;-85
2024/02/17 02:28:57;;;;;;;21.00;11.27;;;11.00;1.00;;;;;;5015340;28;20458;-87
2024/02/17 02:31:22;;;;;;;16.13;10.50;;;11.00;1.00;;;;;;5016973;28;20856;-86
2024/02/17 02:33:48;;;;;;;21.67;11.13;;;11.00;1.00;;;;;;5014421;28;20448;-86
2024/02/17 02:36:14;;;;;;;18.70;10.40;;;11.10;1.00;;;;;;5023705;28;20249;-86
2024/02/17 02:38:40;;;;;;;19.83;10.90;;;11.00;1.00;;;;;;5009828;28;20457;-86
2024/02/17 02:41:05;;;;;;;15.30;8.17;;;11.00;1.00;;;;;;5023885;28;20659;-85
2024/02/17 02:43:31;;;;;;;16.20;9.93;;;11.00;1.00;;;;;;5028211;28;20224;-85
2024/02/17 02:45:56;;;;;;;21.47;9.77;;;11.00;1.00;;;;;;4996050;28;20209;-86
2024/02/17 02:48:22;;;;;;;18.20;10.40;;;11.00;1.00;;;;;;5021500;28;20193;-86
2024/02/17 02:50:48;;;;;;;18.43;9.33;;;11.00;1.00;;;;;;5024228;28;20636;-87
2024/02/17 02:53:13;;;;;;;15.33;9.93;;;11.00;1.00;;;;;;5018755;28;20193;-85
2024/02/17 02:55:39;;;;;;;21.53;9.70;;;11.00;1.00;;;;;;5020551;28;20182;-86
2024/02/17 02:58:04;;;;;;;23.70;11.70;;;11.00;1.00;;;;;;5020090;28;20210;-85
2024/02/17 03:00:30;;;;;;;15.00;8.80;;;11.00;1.00;;;;;;5019103;28;20678;-84
2024/02/17 03:02:56;;;;;;;13.90;9.73;;;11.00;1.00;;;;;;5019641;28;20215;-85
2024/02/17 03:05:22;;;;;;;21.07;9.00;;;11.00;1.00;;;;;;5018132;28;20859;-85
2024/02/17 03:07:47;;;;;;;18.80;9.40;;;10.90;1.00;;;;;;5012878;28;20542;-87
2024/02/17 03:10:13;;;;;;;25.57;9.80;;;10.90;1.00;;;;;;5020908;28;20428;-86
2024/02/17 03:12:39;;;;;;;29.30;10.47;;;10.90;1.00;;;;;;5021248;28;20174;-86
2024/02/17 03:15:05;;;;;;;13.03;8.93;;;10.90;1.00;;;;;;5025388;28;20175;-86
2024/02/17 03:17:31;;;;;;;23.93;10.00;;;10.90;1.00;;;;;;4994840;28;20182;-86
2024/02/17 03:19:56;;;;;;;25.40;10.37;;;10.90;1.00;;;;;;5016365;28;20794;-86
2024/02/17 03:22:22;;;;;;;19.03;10.77;;;10.90;1.00;;;;;;5019239;28;20186;-85
2024/02/17 03:24:48;;;;;;;19.73;10.77;;;10.90;1.00;;;;;;5025458;28;20297;-86
2024/02/17 03:27:13;;;;;;;21.90;10.70;;;10.90;1.00;;;;;;5020425;28;20437;-86
2024/02/17 03:29:39;;;;;;;20.50;10.63;;;10.90;1.00;;;;;;5021776;28;20203;-85
2024/02/17 03:32:05;;;;;;;23.57;10.50;;;10.90;1.00;;;;;;5030241;28;20655;-85
2024/02/17 03:34:34;;;;;;;17.63;10.13;;;10.80;1.00;;;;;;5012667;28;20520;-87
2024/02/17 03:37:00;;;;;;;23.00;12.60;;;10.80;1.00;;;;;;5008947;28;20433;-87
2024/02/17 03:39:25;;;;;;;20.97;11.57;;;10.80;1.00;;;;;;5019638;28;20456;-84
2024/02/17 03:41:51;;;;;;;17.10;9.97;;;10.80;1.00;;;;;;5019761;28;20183;-84
2024/02/17 03:44:18;;;;;;;18.13;11.10;;;10.80;1.00;;;;;;5021322;28;20211;-86
2024/02/17 03:46:44;;;;;;;17.63;11.10;;;10.80;1.00;;;;;;5027259;28;20186;-86
2024/02/17 03:49:10;;;;;;;22.67;11.47;;;10.80;1.00;;;;;;5029359;28;20479;-86
2024/02/17 03:51:36;;;;;;;19.03;11.43;;;10.80;1.00;;;;;;5005583;28;20436;-86
2024/02/17 03:54:02;;;;;;;22.13;11.93;;;10.80;1.00;;;;;;5003799;28;21042;-86
2024/02/17 03:56:28;;;;;;;19.83;10.97;;;10.70;1.00;;;;;;5023108;28;20800;-86
2024/02/17 03:58:54;;;;;;;22.03;11.70;;;10.80;1.00;;;;;;5009829;28;20465;-86
2024/02/17 04:01:20;;;;;;;17.80;11.77;;;10.70;1.00;;;;;;5001158;28;20225;-85
2024/02/17 04:03:45;;;;;;;20.60;11.73;;;10.70;1.00;;;;;;5023172;28;20207;-85
2024/02/17 04:06:11;;;;;;;22.93;11.73;;;10.70;1.00;;;;;;5021793;28;20429;-86
2024/02/17 04:08:36;;;;;;;18.20;10.90;;;10.70;1.00;;;;;;5016234;28;21295;-85
2024/02/17 04:11:02;;;;;;;18.33;12.00;;;10.70;1.00;;;;;;5015809;28;20198;-86
2024/02/17 04:13:28;;;;;;;15.93;10.77;;;10.70;1.00;;;;;;5029246;28;20198;-86
2024/02/17 04:15:53;;;;;;;24.57;13.23;;;10.70;1.00;;;;;;5023004;28;20195;-86
2024/02/17 04:18:19;;;;;;;23.23;13.77;;;10.70;1.00;;;;;;5028425;28;20715;-86
2024/02/17 04:20:44;;;;;;;22.13;11.17;;;10.70;1.00;;;;;;5011842;28;20212;-88
2024/02/17 04:23:11;;;;;;;16.13;11.03;;;10.70;1.00;;;;;;5025461;28;20198;-85
2024/02/17 04:25:39;;;;;;;21.70;11.53;;;10.70;1.00;;;;;;5018766;28;20191;-85
2024/02/17 04:28:06;;;;;;;32.27;11.50;;;10.70;1.00;;;;;;5020616;28;20464;-86
2024/02/17 04:30:32;;;;;;;17.20;12.13;;;10.70;1.00;;;;;;5006434;28;20437;-86
2024/02/17 04:33:00;;;;;;;23.37;12.23;;;10.70;1.00;;;;;;5020487;28;21291;-86
2024/02/17 04:35:26;;;;;;;18.53;12.17;;;10.70;1.00;;;;;;5009545;28;20442;-84
2024/02/17 04:37:53;;;;;;;18.90;12.10;;;10.70;1.00;;;;;;5004703;28;20449;-86
2024/02/17 04:40:19;;;;;;;21.47;11.13;;;10.70;1.00;;;;;;5023088;28;20182;-86
2024/02/17 04:42:44;;;;;;;22.20;11.73;;;10.70;1.00;;;;;;5019811;28;20549;-85
2024/02/17 04:45:10;;;;;;;17.77;11.50;;;10.60;1.00;;;;;;5029948;28;20186;-86
2024/02/17 04:47:36;;;;;;;20.27;12.30;;;10.60;1.00;;;;;;5019543;28;20190;-85
2024/02/17 04:50:03;;;;;;;19.30;11.93;;;10.70;1.00;;;;;;5011305;28;20458;-86
2024/02/17 04:52:28;;;;;;;24.03;12.30;;;10.60;1.00;;;;;;5018408;28;20437;-86
2024/02/17 04:54:54;;;;;;;16.87;12.27;;;10.60;1.00;;;;;;5026933;28;20796;-85
2024/02/17 04:57:19;;;;;;;24.13;11.67;;;10.60;1.00;;;;;;5014993;28;20641;-85
2024/02/17 04:59:45;;;;;;;24.10;12.07;;;10.70;1.00;;;;;;5010722;28;20648;-85
2024/02/17 05:02:11;;;;;;;17.13;11.43;;;10.70;1.00;;;;;;5022520;28;20193;-86
2024/02/17 05:04:37;;;;;;;18.93;12.73;;;10.70;1.00;;;;;;5015113;28;20261;-85
2024/02/17 05:07:03;;;;;;;23.07;12.27;;;10.70;1.00;;;;;;5018666;28;20437;-86
2024/02/17 05:09:29;;;;;;;21.90;12.47;;;10.70;1.00;;;;;;5014841;28;20646;-83
2024/02/17 05:11:55;;;;;;;23.33;12.77;;;10.70;1.00;;;;;;5019809;28;20194;-84
2024/02/17 05:14:22;;;;;;;20.70;12.00;;;10.70;1.00;;;;;;5021925;28;20274;-84
2024/02/17 05:16:48;;;;;;;19.43;12.00;;;10.70;1.00;;;;;;5019872;28;20795;-86
2024/02/17 05:19:14;;;;;;;27.90;12.13;;;10.70;1.00;;;;;;5015110;28;20461;-86
2024/02/17 05:21:43;;;;;;;25.87;12.93;;;10.70;1.00;;;;;;5015020;28;20554;-86
2024/02/17 05:24:10;;;;;;;19.00;12.37;;;10.70;1.00;;;;;;5021481;28;20841;-85
2024/02/17 05:26:36;;;;;;;16.17;11.77;;;10.70;1.00;;;;;;5021699;28;20446;-85
2024/02/17 05:29:06;;;;;;;26.70;11.97;;;10.70;1.00;;;;;;5015705;28;20468;-85
2024/02/17 05:31:33;;;;;;;23.53;13.30;;;10.70;1.00;;;;;;5001436;28;20488;-85
2024/02/17 05:33:59;;;;;;;23.07;12.50;;;10.70;1.00;;;;;;4998935;28;20461;-85
2024/02/17 05:36:25;;;;;;;18.27;12.00;;;10.70;1.00;;;;;;5014162;28;20437;-86
2024/02/17 05:38:51;;;;;;;23.93;12.07;;;10.70;1.00;;;;;;5021414;28;20804;-86
2024/02/17 05:41:17;;;;;;;20.80;11.87;;;10.70;1.00;;;;;;5024292;28;20503;-86
2024/02/17 05:43:42;;;;;;;26.47;12.83;;;10.70;1.00;;;;;;5014401;28;20206;-86
2024/02/17 05:46:08;;;;;;;23.33;13.37;;;10.70;1.00;;;;;;5026762;28;20436;-88
2024/02/17 05:48:34;;;;;;;21.50;13.47;;;10.70;1.00;;;;;;5017477;28;20194;-86
2024/02/17 05:50:59;;;;;;;19.10;13.57;;;10.70;1.00;;;;;;5021924;28;20440;-85
2024/02/17 05:53:25;;;;;;;20.07;11.87;;;10.60;1.00;;;;;;5027249;28;20270;-87
2024/02/17 05:55:51;;;;;;;22.30;12.20;;;10.60;1.00;;;;;;5017920;28;20190;-84
2024/02/17 05:58:16;;;;;;;31.17;12.77;;;10.60;1.00;;;;;;4999764;28;20202;-85
2024/02/17 06:00:42;;;;;;;21.23;13.70;;;10.60;1.00;;;;;;5018318;28;20189;-86
2024/02/17 06:03:08;;;;;;;24.23;14.30;;;10.60;1.00;;;;;;5022526;28;20217;-86
2024/02/17 06:05:34;;;;;;;22.70;12.60;;;10.60;1.00;;;;;;5013684;28;20179;-85
2024/02/17 06:07:59;;;;;;;22.23;12.23;;;10.60;1.00;;;;;;5013208;28;21001;-85
2024/02/17 06:10:25;;;;;;;21.83;11.40;;;10.60;1.00;;;;;;5016335;28;20269;-85
2024/02/17 06:12:51;;;;;;;33.30;11.60;;;10.60;1.00;;;;;;5003855;28;20645;-85
2024/02/17 06:15:16;;;;;;;20.20;12.13;;;10.60;1.00;;;;;;5016537;28;20183;-86
2024/02/17 06:17:43;;;;;;;21.00;12.33;;;10.60;1.00;;;;;;5005303;28;20634;-85
2024/02/17 06:22:56;;;;;;;19.33;11.03;;;10.60;1.00;;;;;;5013327;28;20803;-85
2024/02/17 06:25:22;;;;;;;22.07;10.80;;;10.60;1.00;;;;;;5028188;28;20436;-85
2024/02/17 06:27:48;;;;;;;17.77;11.23;;;10.60;1.00;;;;;;5017038;28;20266;-85
2024/02/17 06:30:14;;;;;;;22.90;13.03;;;10.60;1.00;;;;;;5013427;28;20963;-85
2024/02/17 06:32:43;;;;;;;25.93;12.90;;;10.60;1.00;;;;;;5012593;28;20434;-86
2024/02/17 06:35:09;;;;;;;19.13;11.77;;;10.60;1.00;;;;;;4996003;28;20449;-87
2024/02/17 06:37:35;;;;;;;23.63;12.70;;;10.60;1.00;;;;;;5017866;28;20465;-85
2024/02/17 06:40:01;;;;;;;25.43;11.77;;;10.50;1.00;;;;;;5019117;28;20522;-86
2024/02/17 06:42:27;;;;;;;24.57;11.57;;;10.50;1.00;;;;;;5012213;28;20435;-85
2024/02/17 06:44:52;;;;;;;18.03;12.07;;;10.50;1.00;;;;;;5015870;28;20210;-86
2024/02/17 06:47:19;;;;;;;19.93;11.23;;;10.50;1.00;;;;;;5013073;28;20186;-87
2024/02/17 06:49:46;;;;;;;18.40;10.80;;;10.50;1.00;;;;;;5014510;28;20202;-85
2024/02/17 06:52:11;;;;;;;23.53;11.90;;;10.50;1.00;;;;;;4999080;28;20570;-86
2024/02/17 06:54:37;;;;;;;18.40;10.77;;;10.50;1.00;;;;;;5002506;28;20959;-85
2024/02/17 06:57:03;;;;;;;19.70;11.23;;;10.50;1.00;;;;;;5014496;28;20191;-86
2024/02/17 06:59:29;;;;;;;20.83;11.10;;;10.50;1.00;;;;;;5012911;28;20656;-85
2024/02/17 07:01:56;;;;;;;21.10;11.93;;;10.50;1.00;;;;;;5010271;28;20565;-85
2024/02/17 07:04:21;;;;;;;18.37;11.93;;;10.60;1.00;;;;;;5022417;28;20257;-85
2024/02/17 07:06:47;;;;;;;18.90;10.67;;;10.60;1.00;;;;;;5007603;28;20445;-85
2024/02/17 07:09:16;;;;;;;17.13;10.97;;;10.70;1.00;;;;;;5010416;28;20210;-85
2024/02/17 07:11:42;;;;;;;23.53;12.57;;;10.70;1.00;;;;;;5001164;28;20572;-85
2024/02/17 07:14:08;;;;;;;23.43;11.57;;;10.70;1.00;;;;;;5020835;28;20535;-86
2024/02/17 07:16:34;;;;;;;21.23;10.50;;;10.70;1.00;;;;;;5006611;28;20201;-85
2024/02/17 07:18:59;;;;;;;16.43;10.43;;;10.70;1.00;;;;;;5024489;28;20213;-86
2024/02/17 07:21:28;;;;;;;16.10;10.07;;;10.80;1.00;;;;;;5007238;28;20199;-85
2024/02/17 07:23:54;;;;;;;15.63;10.60;;;10.80;1.00;;;;;;5007321;28;20229;-87
2024/02/17 07:26:19;;;;;;;20.27;10.47;;;10.80;1.00;;;;;;5026397;28;20452;-85
2024/02/17 07:28:47;;;;;;;20.77;11.27;;;10.80;1.00;;;;;;5001790;28;20237;-84
2024/02/17 07:31:15;;;;;;;22.50;10.20;;;10.80;1.00;;;;;;5024563;28;20198;-85
2024/02/17 07:33:43;;;;;;;17.97;9.90;;;10.80;1.00;;;;;;4995999;28;20442;-83
2024/02/17 07:36:08;;;;;;;25.37;11.27;;;10.80;1.00;;;;;;5024533;28;20481;-85
2024/02/17 07:38:34;;;;;;;24.83;10.10;;;10.80;1.00;;;;;;5022523;28;20500;-86
2024/02/17 07:41:00;;;;;;;17.83;10.07;;;10.80;1.00;;;;;;5020930;28;20278;-85
2024/02/17 07:43:25;;;;;;;21.83;11.23;;;10.90;1.00;;;;;;4996967;28;20203;-84
2024/02/17 07:45:51;;;;;;;21.87;10.63;;;10.80;1.00;;;;;;5005301;28;20182;-84
2024/02/17 07:48:18;;;;;;;23.83;10.07;;;10.80;1.00;;;;;;5025727;28;20273;-86
2024/02/17 07:50:44;;;;;;;23.17;10.20;;;10.90;1.00;;;;;;4998484;28;20182;-83
2024/02/17 07:53:10;;;;;;;19.83;9.50;;;10.90;1.00;;;;;;5012391;28;20975;-84
2024/02/17 07:55:35;;;;;;;17.50;9.70;;;10.90;1.00;;;;;;5016532;28;20187;-85
2024/02/17 07:58:01;;;;;;;22.07;10.50;;;11.00;1.00;;;;;;4998522;28;20198;-85
2024/02/17 08:00:26;;;;;;;17.30;9.80;;;11.00;1.00;;;;;;5001820;28;20199;-84
2024/02/17 08:02:52;;;;;;;14.80;11.07;;;11.00;1.00;;;;;;5020511;28;20194;-82
2024/02/17 08:05:18;;;;;;;19.00;9.87;;;11.00;1.00;;;;;;5018814;28;20196;-86
2024/02/17 08:07:44;;;;;;;19.30;9.70;;;11.00;1.00;;;;;;5010419;28;20193;-85
2024/02/17 08:10:11;;;;;;;18.37;10.23;;;11.00;1.00;;;;;;5014650;28;20205;-85
2024/02/17 08:12:37;;;;;;;17.43;9.53;;;11.10;1.00;;;;;;5017089;28;20379;-85
2024/02/17 08:15:06;;;;;;;18.20;9.17;;;11.10;1.00;;;;;;5016940;28;20490;-85
2024/02/17 08:17:34;;;;;;;20.70;9.50;;;11.10;1.00;;;;;;5009170;28;20430;-85
2024/02/17 08:20:00;;;;;;;15.50;9.07;;;11.20;1.00;;;;;;5019579;28;20974;-85
2024/02/17 08:22:26;;;;;;;16.20;9.70;;;11.20;1.00;;;;;;5027154;28;20440;-85
2024/02/17 08:24:51;;;;;;;24.50;9.17;;;11.20;1.00;;;;;;5025250;28;20469;-86
2024/02/17 08:27:17;;;;;;;20.30;8.60;;;11.20;1.00;;;;;;5015150;28;20567;-86
2024/02/17 08:29:43;;;;;;;14.73;9.37;;;11.20;1.00;;;;;;5036094;28;20226;-85
2024/02/17 08:32:08;;;;;;;13.23;8.80;;;11.30;1.00;;;;;;5028503;28;20187;-84
2024/02/17 08:34:34;;;;;;;18.80;9.47;;;11.30;1.00;;;;;;5022900;28;20725;-84
2024/02/17 08:36:59;;;;;;;25.43;9.43;;;11.30;1.00;;;;;;5023083;28;20190;-85
2024/02/17 08:39:25;;;;;;;20.97;10.27;;;11.30;1.00;;;;;;5025987;28;20199;-85
2024/02/17 08:41:53;;;;;;;12.70;8.07;;;11.30;1.00;;;;;;5011565;28;20806;-84
2024/02/17 08:44:18;;;;;;;16.30;9.40;;;11.40;1.00;;;;;;5016149;28;20220;-84
2024/02/17 08:46:44;;;;;;;18.73;9.17;;;11.40;1.00;;;;;;5001212;28;20548;-85
2024/02/17 08:49:10;;;;;;;20.20;8.43;;;11.40;1.00;;;;;;5011813;28;20214;-84
2024/02/17 08:51:38;;;;;;;19.40;9.40;;;11.40;1.00;;;;;;4999150;28;20175;-84
2024/02/17 08:54:04;;;;;;;29.17;9.57;;;11.40;1.00;;;;;;5017493;28;20280;-85
2024/02/17 08:56:30;;;;;;;18.50;8.60;;;11.50;1.00;;;;;;5009421;28;20472;-84
2024/02/17 08:58:56;;;;;;;19.73;8.20;;;11.60;1.00;;;;;;5019532;28;20238;-85
2024/02/17 09:01:22;;;;;;;17.03;8.03;;;11.60;99.90;;;;;;5004373;28;20183;-83
2024/02/17 09:03:48;;;;;;;18.73;8.27;;;11.60;99.90;;;;;;5002856;28;20562;-84
2024/02/17 09:06:13;;;;;;;15.97;8.33;;;11.60;99.90;;;;;;5021627;28;20438;-85
2024/02/17 09:08:39;;;;;;;16.97;8.57;;;11.60;99.90;;;;;;5001594;28;20192;-85
2024/02/17 09:11:05;;;;;;;19.80;7.67;;;11.60;99.90;;;;;;5029375;28;20188;-85
2024/02/17 09:13:30;;;;;;;18.83;8.07;;;11.70;99.90;;;;;;5003915;28;20186;-85
2024/02/17 09:15:56;;;;;;;17.20;7.50;;;11.70;99.90;;;;;;4998181;28;20185;-84
2024/02/17 09:18:23;;;;;;;17.80;7.93;;;11.70;99.90;;;;;;5013835;28;20230;-84
2024/02/17 09:20:50;;;;;;;13.67;9.13;;;11.70;99.90;;;;;;5012566;28;20190;-83
2024/02/17 09:23:15;;;;;;;22.03;8.20;;;11.80;99.90;;;;;;5016704;28;20462;-84
2024/02/17 09:25:41;;;;;;;18.50;8.33;;;11.80;99.90;;;;;;5012498;28;20962;-84
2024/02/17 09:28:07;;;;;;;17.70;7.57;;;11.90;99.90;;;;;;5014792;28;20226;-85
2024/02/17 09:30:34;;;;;;;17.97;8.83;;;11.90;99.90;;;;;;5009116;28;20203;-83
2024/02/17 09:33:01;;;;;;;23.43;8.57;;;11.90;99.90;;;;;;5026969;28;20185;-84
2024/02/17 09:35:28;;;;;;;18.40;8.90;;;11.90;99.90;;;;;;4997125;28;20555;-84
2024/02/17 09:37:53;;;;;;;14.63;7.23;;;11.80;99.90;;;;;;5004428;28;20521;-85
2024/02/17 09:40:20;;;;;;;21.13;8.70;;;11.80;99.90;;;;;;5026898;28;20193;-84
2024/02/17 09:42:47;;;;;;;19.43;7.80;;;11.80;99.90;;;;;;5012930;28;20189;-85
2024/02/17 09:45:13;;;;;;;17.00;8.83;;;11.90;99.90;;;;;;5012048;28;20445;-85
2024/02/17 09:47:43;;;;;;;15.97;7.80;;;11.90;99.90;;;;;;5029922;28;20453;-87
2024/02/17 09:50:10;;;;;;;17.10;8.03;;;11.90;27.50;;;;;;5028181;28;20453;-86
2024/02/17 09:52:37;;;;;;;14.37;8.37;;;11.90;62.30;;;;;;5009953;28;20419;-87
2024/02/17 09:55:04;;;;;;;15.90;7.87;;;11.90;39.90;;;;;;5012645;28;20535;-86
2024/02/17 09:57:30;;;;;;;20.20;7.10;;;11.90;73.00;;;;;;5021829;28;20509;-86
2024/02/17 09:59:55;;;;;;;16.77;7.83;;;11.80;47.50;;;;;;5013873;28;21121;-86
2024/02/17 10:02:22;;;;;;;16.80;7.60;;;11.90;32.00;;;;;;5024439;28;20574;-85
2024/02/17 10:04:57;;;;;;;12.97;7.70;;;11.90;1.00;;;;;;5022339;28;20251;-86
2024/02/17 10:07:23;;;;;;;17.17;8.27;;;12.00;1.00;;;;;;5006086;28;20433;-86
2024/02/17 10:09:49;;;;;;;14.53;7.20;;;12.10;1.00;;;;;;5021681;28;20977;-85
2024/02/17 10:12:17;;;;;;;15.63;7.33;;;12.10;1.00;;;;;;5030083;28;20193;-84
2024/02/17 10:14:50;;;;;;;16.90;7.93;;;12.20;1.00;;;;;;5027507;28;20443;-87
2024/02/17 10:17:15;;;;;;;15.30;8.50;;;12.20;1.00;;;;;;5034151;28;20426;-85
2024/02/17 10:19:41;;;;;;;14.60;6.70;;;12.20;99.90;;;;;;5016182;28;20484;-86
2024/02/17 10:22:07;;;;;;;20.40;9.57;;;12.30;99.90;;;;;;5029292;28;20586;-86
2024/02/17 10:24:32;;;;;;;19.50;6.97;;;12.30;99.90;;;;;;5031602;28;20209;-87
2024/02/17 10:26:59;;;;;;;20.23;6.20;;;12.40;99.90;;;;;;5031687;28;20188;-84
2024/02/17 10:29:25;;;;;;;20.33;7.03;;;12.40;99.90;;;;;;5030139;28;20334;-87
2024/02/17 10:31:50;;;;;;;17.30;6.77;;;12.40;1.00;;;;;;5032111;28;20467;-86
2024/02/17 10:34:16;;;;;;;12.57;6.20;;;12.40;1.00;;;;;;5023918;28;20203;-84
2024/02/17 10:36:43;;;;;;;18.40;6.87;;;12.50;1.00;;;;;;5015541;28;20184;-83
2024/02/17 10:39:11;;;;;;;15.30;6.30;;;12.50;99.90;;;;;;5024749;28;20203;-85
2024/02/17 10:41:37;;;;;;;19.77;7.20;;;12.50;1.00;;;;;;5027389;28;20429;-85
2024/02/17 10:44:03;;;;;;;11.33;6.07;;;12.60;99.90;;;;;;5002624;28;20456;-85
2024/02/17 10:46:31;;;;;;;18.57;7.53;;;12.60;1.00;;;;;;5026200;28;20433;-84
2024/02/17 10:49:11;;;;;;;20.30;8.07;;;12.60;1.00;;;;;;5030422;28;20437;-83
2024/02/17 10:52:08;;;;;;;16.53;6.27;;;12.70;29.40;;;;;;5032435;28;20460;-84
2024/02/17 10:54:45;;;;;;;11.33;6.80;;;12.70;1.00;;;;;;5018644;28;20429;-85
2024/02/17 10:57:13;;;;;;;26.23;7.43;;;12.80;99.90;;;;;;5020073;28;20425;-85
2024/02/17 10:59:43;;;;;;;19.37;7.13;;;12.90;1.00;;;;;;4997768;28;20562;-85
2024/02/17 11:02:13;;;;;;;16.80;7.40;;;13.00;99.90;;;;;;5022845;28;20433;-84
2024/02/17 11:04:39;;;;;;;19.00;7.07;;;13.10;1.00;;;;;;5029811;28;20474;-85
2024/02/17 11:07:05;;;;;;;14.90;6.33;;;13.10;1.00;;;;;;5036123;28;20416;-85
2024/02/17 11:09:30;;;;;;;18.63;6.50;;;13.10;99.90;;;;;;5033474;28;20449;-85
2024/02/17 11:12:28;;;;;;;17.53;7.43;;;13.20;99.90;;;;;;5010668;28;20456;-86
2024/02/17 11:15:11;;;;;;;18.03;6.80;;;13.20;1.00;;;;;;5026785;28;20198;-86
2024/02/17 11:17:42;;;;;;;16.63;6.70;;;13.30;1.00;;;;;;5033823;28;20504;-85
2024/02/17 11:20:13;;;;;;;19.67;6.93;;;13.40;1.00;;;;;;5034816;28;20437;-87
2024/02/17 11:23:00;;;;;;;16.63;6.60;;;13.50;1.00;;;;;;5039100;28;20508;-86
2024/02/17 11:25:30;;;;;;;15.53;6.77;;;13.70;99.90;;;;;;5032211;28;20443;-86
2024/02/17 11:27:57;;;;;;;18.97;7.10;;;13.80;20.50;;;;;;5041603;28;20428;-87
2024/02/17 11:30:24;;;;;;;14.97;6.70;;;13.80;1.00;;;;;;5032610;28;20515;-85
2024/02/17 11:32:57;;;;;;;15.43;6.80;;;13.80;1.00;;;;;;5040990;28;20421;-85
2024/02/17 11:35:24;;;;;;;17.50;6.83;;;13.80;1.00;;;;;;5038560;28;20503;-87
2024/02/17 11:37:54;;;;;;;19.87;6.80;;;13.90;99.90;;;;;;5032714;28;20432;-85
2024/02/17 11:40:20;;;;;;;20.70;8.20;;;13.90;99.90;;;;;;5041004;28;20424;-86
2024/02/17 11:42:47;;;;;;;13.70;5.80;;;14.00;99.90;;;;;;5039906;28;20935;-85
2024/02/17 11:45:14;;;;;;;19.13;7.30;;;14.10;99.90;;;;;;5038083;28;20789;-86
2024/02/17 11:47:40;;;;;;;;;;;14.20;99.90;;;;;;5033560;28;20291;-86
2024/02/17 11:50:12;;;;;;;15.77;6.60;;;;;;;;;;5031178;28;20376;-87
2024/02/17 11:52:38;;;;;;;;;;;15.40;90.90;;;;;;5017708;28;20295;-87
2024/02/17 11:55:04;;;;;;;;;;;15.40;1.00;;;;;;5030170;28;19917;-87
2024/02/17 11:57:31;;;;;;;;;;;15.70;99.90;;;;;;5015356;28;19905;-86
2024/02/17 11:59:56;;;;;;;;;;;16.00;1.00;;;;;;5040070;28;19920;-84
2024/02/17 12:02:23;;;;;;;;;;;16.20;99.90;;;;;;5043695;28;19905;-85
2024/02/17 12:04:48;;;;;;;;;;;16.20;99.90;;;;;;5033137;28;19909;-83
2024/02/17 12:07:14;;;;;;;;;;;16.10;84.50;;;;;;5022609;28;19912;-85
2024/02/17 12:09:39;;;;;;;;;;;15.90;60.70;;;;;;5023939;28;20480;-82
2024/02/17 12:12:05;;;;;;;;;;;15.70;99.90;;;;;;5019343;28;19913;-83
2024/02/17 12:14:31;;;;;;;;;;;15.50;99.90;;;;;;5017812;28;19910;-84
2024/02/17 12:16:57;;;;;;;;;;;15.30;99.90;;;;;;5026046;28;19912;-85
2024/02/17 12:19:23;;;;;;;;;;;15.20;99.90;;;;;;5025985;28;19909;-86
2024/02/17 12:21:49;;;;;;;;;;;15.10;99.90;;;;;;5016220;28;19913;-85
2024/02/17 12:24:14;;;;;;;;;;;15.00;99.90;;;;;;5032369;28;20397;-87
2024/02/17 12:26:41;;;;;;;;;;;15.00;99.90;;;;;;5014371;28;19915;-85
2024/02/17 12:29:07;;;;;;;;;;;15.00;99.90;;;;;;5011102;28;19913;-86
2024/02/17 12:31:32;;;;;;;;;;;14.90;99.90;;;;;;5008775;28;19915;-85
2024/02/17 12:33:58;;;;;;;;;;;14.80;99.90;;;;;;5016130;28;19916;-84
2024/02/17 12:36:24;;;;;;;;;;;14.70;99.90;;;;;;5019618;28;19909;-88
2024/02/17 12:38:56;;;;;;;;;;;14.60;1.00;;;;;;5020138;28;19963;-85
2024/02/17 12:41:22;;;;;;;;;;;14.50;1.00;;;;;;5027822;28;19991;-89
2024/02/17 12:43:48;;;;;;;;;;;14.50;1.00;;;;;;5034449;28;20413;-86